Time;durP1;ratioP1;P1;durP2;ratioP2;P2;SDS_P1;SDS_P2;PMS_P1;PMS_P2;Temp;Humidity;BMP_temperature;BMP_pressure;BME280_temperature;BME280_humidity;BME280_pressure;Samples;Min_cycle;Max_cycle;Signal;HPM_P1;HPM_P2
2023/09/18 00:01:26;;;;;;;9.80;5.20;;;;;;;16.83;100.00;101665.29;109827;1240;59843;-78
2023/09/18 00:03:55;;;;;;;7.00;5.20;;;;;;;16.70;100.00;101663.56;109711;1240;63334;-78
2023/09/18 00:06:25;;;;;;;6.30;5.20;;;;;;;16.59;100.00;101665.17;109789;1242;57793;-79
2023/09/18 00:08:54;;;;;;;8.80;5.60;;;;;;;16.49;100.00;101666.05;109833;1241;61071;-79
2023/09/18 00:11:23;;;;;;;7.30;5.50;;;;;;;16.40;100.00;101664.09;109825;1241;74006;-79
2023/09/18 00:13:52;;;;;;;7.20;5.50;;;;;;;16.32;100.00;101665.11;109801;1242;72913;-79
2023/09/18 00:16:21;;;;;;;6.50;5.50;;;;;;;16.47;100.00;101666.30;109831;1240;60160;-79
2023/09/18 00:18:50;;;;;;;7.90;5.30;;;;;;;16.65;100.00;101660.77;109783;1241;62532;-74
2023/09/18 00:21:19;;;;;;;8.00;5.10;;;;;;;16.63;100.00;101658.27;109783;1241;58621;-73
2023/09/18 00:23:48;;;;;;;6.50;5.00;;;;;;;16.55;100.00;101659.66;109810;1241;58250;-72
2023/09/18 00:26:17;;;;;;;8.40;4.90;;;;;;;16.46;100.00;101663.41;109856;1242;62776;-73
2023/09/18 00:28:47;;;;;;;12.00;5.60;;;;;;;16.36;100.00;101663.73;109508;1241;72263;-72
2023/09/18 00:31:17;;;;;;;7.40;5.30;;;;;;;16.25;100.00;101661.61;109787;1240;70569;-77
2023/09/18 00:33:46;;;;;;;6.70;5.40;;;;;;;16.17;100.00;101660.73;109705;1241;73694;-75
2023/09/18 00:36:15;;;;;;;8.30;5.70;;;;;;;16.09;100.00;101658.49;109635;1241;63098;-76
2023/09/18 00:38:44;;;;;;;8.50;5.70;;;;;;;16.06;100.00;101659.83;109676;1240;60593;-76
2023/09/18 00:41:13;;;;;;;9.20;6.20;;;;;;;16.01;100.00;101664.98;109667;1241;74960;-75
2023/09/18 00:43:42;;;;;;;9.00;5.80;;;;;;;15.93;100.00;101661.40;109656;1240;71517;-75
2023/09/18 00:46:12;;;;;;;7.90;5.50;;;;;;;15.87;100.00;101663.60;109715;1240;60940;-76
2023/09/18 00:48:41;;;;;;;7.30;5.20;;;;;;;15.83;100.00;101663.79;109775;1240;62398;-79
2023/09/18 00:51:10;;;;;;;8.50;5.60;;;;;;;15.79;100.00;101662.53;109597;1244;62220;-78
2023/09/18 00:53:39;;;;;;;7.30;5.60;;;;;;;15.78;100.00;101661.73;109904;1240;61093;-76
2023/09/18 00:56:08;;;;;;;7.20;5.70;;;;;;;15.76;100.00;101658.17;109664;1241;73479;-75
2023/09/18 00:58:37;;;;;;;8.30;5.50;;;;;;;15.79;100.00;101654.30;109455;1240;62122;-76
2023/09/18 01:01:06;;;;;;;6.80;5.70;;;;;;;15.72;100.00;101656.59;109639;1241;59882;-76
2023/09/18 01:03:35;;;;;;;8.20;5.70;;;;;;;15.62;100.00;101659.09;109618;1240;73655;-76
2023/09/18 01:06:04;;;;;;;7.00;5.60;;;;;;;15.52;100.00;101654.25;109659;1242;57839;-77
2023/09/18 01:08:33;;;;;;;8.30;5.50;;;;;;;15.43;100.00;101651.83;109675;1240;58392;-76
2023/09/18 01:11:41;;;;;;;6.80;5.30;;;;;;;15.30;100.00;101649.31;109696;1240;74932;-74
2023/09/18 01:14:31;;;;;;;9.30;5.80;;;;;;;15.15;100.00;101648.00;109699;1240;72952;-77
2023/09/18 01:17:03;;;;;;;7.80;5.40;;;;;;;15.00;100.00;101650.38;109729;1243;60377;-76
2023/09/18 01:19:39;;;;;;;9.60;5.50;;;;;;;14.86;100.00;101652.84;109599;1241;73923;-77
2023/09/18 01:22:09;;;;;;;7.60;5.60;;;;;;;14.77;100.00;101653.33;109723;1240;62565;-75
2023/09/18 01:24:40;;;;;;;7.80;5.70;;;;;;;14.71;100.00;101651.19;109617;1240;57799;-75
2023/09/18 01:27:16;;;;;;;6.40;5.30;;;;;;;14.66;100.00;101652.80;109611;1240;74823;-76
2023/09/18 01:29:47;;;;;;;7.10;5.70;;;;;;;14.65;100.00;101648.84;109737;1240;61418;-77
2023/09/18 01:32:16;;;;;;;8.30;6.10;;;;;;;14.58;100.00;101649.52;109641;1244;68711;-76
2023/09/18 01:34:48;;;;;;;8.20;6.10;;;;;;;14.47;100.00;101647.15;109671;1241;62828;-75
2023/09/18 01:37:24;;;;;;;7.30;5.80;;;;;;;14.37;100.00;101647.91;109488;1245;58145;-75
2023/09/18 01:39:53;;;;;;;7.00;6.10;;;;;;;14.27;100.00;101648.23;109617;1240;60284;-74
2023/09/18 01:42:22;;;;;;;7.20;5.90;;;;;;;14.15;100.00;101654.39;109675;1240;74701;-75
2023/09/18 01:44:53;;;;;;;10.20;5.60;;;;;;;14.06;100.00;101652.05;109784;1240;72791;-76
2023/09/18 01:47:26;;;;;;;7.50;5.70;;;;;;;13.98;100.00;101649.61;109591;1244;61386;-77
2023/09/18 01:49:56;;;;;;;8.30;6.00;;;;;;;14.09;100.00;101652.35;109700;1240;73122;-75
2023/09/18 01:52:25;;;;;;;6.40;5.70;;;;;;;14.26;100.00;101653.92;109676;1243;62548;-75
2023/09/18 01:54:54;;;;;;;9.60;6.50;;;;;;;14.16;100.00;101650.10;109777;1240;61492;-76
2023/09/18 01:57:23;;;;;;;7.70;5.40;;;;;;;14.19;100.00;101645.70;109795;1241;72830;-76
2023/09/18 01:59:52;;;;;;;8.20;6.40;;;;;;;14.36;100.00;101643.96;109670;1241;72274;-74
2023/09/18 02:02:21;;;;;;;10.80;7.00;;;;;;;14.38;100.00;101641.47;109711;1241;60153;-80
2023/09/18 02:05:04;;;;;;;8.40;6.30;;;;;;;14.67;100.00;101645.48;109433;1241;73485;-77
2023/09/18 02:07:37;;;;;;;9.50;6.50;;;;;;;14.67;100.00;101646.19;109514;1243;62394;-78
2023/09/18 02:10:07;;;;;;;10.40;7.40;;;;;;;14.67;100.00;101650.23;109376;1240;59826;-78
2023/09/18 02:12:36;;;;;;;8.60;6.40;;;;;;;14.61;100.00;101648.78;109534;1241;63424;-78
2023/09/18 02:15:09;;;;;;;9.60;6.70;;;;;;;14.53;100.00;101647.09;109613;1240;61927;-79
2023/09/18 02:17:39;;;;;;;9.70;6.50;;;;;;;14.47;100.00;101646.48;109372;1240;69434;-80
2023/09/18 02:20:11;;;;;;;8.60;6.30;;;;;;;14.40;100.00;101650.50;109655;1241;73903;-76
2023/09/18 02:22:40;;;;;;;12.30;6.50;;;;;;;14.29;100.00;101652.67;109422;1242;62365;-78
2023/09/18 02:25:09;;;;;;;8.30;6.30;;;;;;;14.19;100.00;101653.77;109542;1240;58345;-78
2023/09/18 02:27:38;;;;;;;8.20;6.60;;;;;;;14.07;100.00;101652.18;109736;1241;63000;-77
2023/09/18 02:30:09;;;;;;;10.30;6.20;;;;;;;13.96;100.00;101651.18;109651;1243;61696;-76
2023/09/18 02:32:38;;;;;;;10.20;7.10;;;;;;;13.83;100.00;101653.67;109753;1242;59989;-77
2023/09/18 02:35:07;;;;;;;7.20;6.40;;;;;;;13.70;100.00;101648.02;109730;1241;63259;-72
2023/09/18 02:37:36;;;;;;;8.10;6.10;;;;;;;13.60;100.00;101644.49;109544;1242;58241;-76
2023/09/18 02:40:07;;;;;;;7.50;6.10;;;;;;;13.53;100.00;101648.15;109572;1244;57766;-77
2023/09/18 02:42:36;;;;;;;10.40;7.30;;;;;;;13.43;100.00;101647.61;109689;1241;63791;-77
2023/09/18 02:45:06;;;;;;;8.00;6.40;;;;;;;13.34;100.00;101646.30;109815;1241;68640;-75
2023/09/18 02:47:37;;;;;;;7.40;6.10;;;;;;;13.26;100.00;101651.60;109777;1240;69563;-79
2023/09/18 02:50:06;;;;;;;10.40;7.10;;;;;;;13.17;100.00;101647.64;109675;1241;74372;-76
2023/09/18 02:52:35;;;;;;;10.20;7.30;;;;;;;13.08;100.00;101647.02;109770;1241;62658;-78
2023/09/18 02:55:05;;;;;;;9.20;6.70;;;;;;;13.00;100.00;101645.64;109785;1240;61564;-77
2023/09/18 02:57:34;;;;;;;8.90;6.40;;;;;;;12.95;100.00;101640.36;109758;1241;72064;-76
2023/09/18 03:00:03;;;;;;;7.40;6.20;;;;;;;12.87;100.00;101639.33;109662;1241;72018;-76
2023/09/18 03:02:32;;;;;;;9.30;6.50;;;;;;;12.78;100.00;101638.70;109677;1241;59378;-74
2023/09/18 03:05:01;;;;;;;9.30;6.70;;;;;;;12.72;100.00;101638.97;109652;1243;63251;-77
2023/09/18 03:07:30;;;;;;;8.00;6.50;;;;;;;12.67;100.00;101639.30;109637;1244;61039;-78
2023/09/18 03:09:59;;;;;;;10.70;6.80;;;;;;;12.63;100.00;101641.50;109702;1244;61595;-77
2023/09/18 03:12:28;;;;;;;8.40;7.00;;;;;;;12.55;100.00;101641.31;109697;1240;74527;-77
2023/09/18 03:14:57;;;;;;;11.10;7.30;;;;;;;12.50;100.00;101645.63;109780;1241;61152;-77
2023/09/18 03:17:26;;;;;;;9.30;7.40;;;;;;;12.48;100.00;101643.02;109656;1241;70479;-79
2023/09/18 03:19:55;;;;;;;11.70;7.10;;;;;;;12.43;100.00;101646.63;109768;1240;73805;-78
2023/09/18 03:22:25;;;;;;;9.80;6.30;;;;;;;12.34;100.00;101643.36;109738;1241;62479;-78
2023/09/18 03:24:54;;;;;;;8.30;7.00;;;;;;;12.30;100.00;101644.86;109520;1241;57760;-78
2023/09/18 03:27:28;;;;;;;10.80;7.00;;;;;;;12.25;100.00;101649.55;109635;1241;73821;-75
2023/09/18 03:29:58;;;;;;;13.20;7.40;;;;;;;12.19;100.00;101648.65;109687;1244;61912;-76
2023/09/18 03:32:27;;;;;;;11.00;9.40;;;;;;;12.16;100.00;101650.30;109688;1241;70439;-76
2023/09/18 03:34:57;;;;;;;10.90;7.90;;;;;;;12.16;100.00;101650.80;109707;1241;71179;-76
2023/09/18 03:37:26;;;;;;;10.40;7.80;;;;;;;12.15;100.00;101652.94;109644;1243;63393;-79
2023/09/18 03:39:55;;;;;;;11.40;7.60;;;;;;;12.15;100.00;101651.42;109692;1240;61245;-74
2023/09/18 03:42:26;;;;;;;18.30;10.90;;;;;;;12.13;100.00;101650.48;109719;1241;64253;-74
2023/09/18 03:44:55;;;;;;;10.40;7.80;;;;;;;12.09;100.00;101645.48;109817;1241;72834;-80
2023/09/18 03:47:24;;;;;;;25.30;17.30;;;;;;;12.07;100.00;101646.52;109830;1240;70860;-77
2023/09/18 03:49:53;;;;;;;12.60;8.70;;;;;;;12.03;100.00;101647.64;109709;1242;73780;-77
2023/09/18 03:52:22;;;;;;;10.70;8.50;;;;;;;12.01;100.00;101649.00;109648;1242;62675;-79
2023/09/18 03:54:51;;;;;;;10.30;7.00;;;;;;;11.99;100.00;101653.30;109687;1244;61451;-77
2023/09/18 03:57:20;;;;;;;10.10;7.40;;;;;;;11.98;100.00;101653.90;109627;1241;74887;-77
2023/09/18 03:59:48;;;;;;;7.70;6.70;;;;;;;11.96;100.00;101655.92;109559;1240;72386;-74
2023/09/18 04:02:17;;;;;;;10.90;7.10;;;;;;;11.90;100.00;101659.40;109595;1241;70176;-72
2023/09/18 04:04:46;;;;;;;19.20;9.40;;;;;;;11.87;100.00;101658.61;109580;1241;74657;-73
2023/09/18 04:07:19;;;;;;;14.60;8.60;;;;;;;11.86;100.00;101660.25;109582;1244;58216;-70
2023/09/18 04:09:48;;;;;;;18.60;9.50;;;;;;;11.91;100.00;101662.69;109562;1241;57752;-69
2023/09/18 04:12:17;;;;;;;17.70;10.20;;;;;;;11.92;100.00;101658.96;109474;1240;73384;-74
2023/09/18 04:14:46;;;;;;;20.20;10.80;;;;;;;11.93;100.00;101658.59;109491;1244;62010;-76
2023/09/18 04:17:15;;;;;;;20.70;11.30;;;;;;;11.95;100.00;101660.75;109680;1241;59257;-72
2023/09/18 04:19:44;;;;;;;18.60;9.50;;;;;;;11.97;100.00;101660.23;109514;1243;63111;-75
2023/09/18 04:22:13;;;;;;;15.10;9.60;;;;;;;11.99;100.00;101660.11;109372;1244;57815;-75
2023/09/18 04:24:42;;;;;;;13.60;9.10;;;;;;;12.00;100.00;101662.48;109536;1241;58130;-75
2023/09/18 04:27:11;;;;;;;12.80;9.40;;;;;;;12.00;100.00;101663.35;109672;1240;63574;-75
2023/09/18 04:29:40;;;;;;;15.40;9.40;;;;;;;12.02;100.00;101666.38;109565;1241;70849;-74
2023/09/18 04:32:09;;;;;;;12.00;8.80;;;;;;;12.04;100.00;101666.63;109527;1240;69923;-82
2023/09/18 04:34:39;;;;;;;13.90;8.90;;;;;;;12.05;100.00;101670.00;109647;1240;63092;-80
2023/09/18 04:37:08;;;;;;;15.20;9.40;;;;;;;12.11;100.00;101668.46;109630;1244;62531;-80
2023/09/18 04:39:36;;;;;;;17.00;10.10;;;;;;;12.16;100.00;101669.51;109624;1240;60397;-79
2023/09/18 04:42:06;;;;;;;17.20;9.50;;;;;;;12.24;100.00;101674.44;109613;1240;73914;-79
2023/09/18 04:44:34;;;;;;;16.70;9.80;;;;;;;12.33;100.00;101675.60;109663;1242;72210;-79
2023/09/18 04:47:04;;;;;;;24.30;10.50;;;;;;;12.40;100.00;101675.08;109590;1240;60612;-80
2023/09/18 04:49:33;;;;;;;14.10;9.20;;;;;;;12.52;100.00;101679.77;109549;1244;62763;-79
2023/09/18 04:52:03;;;;;;;16.60;9.60;;;;;;;12.64;100.00;101675.98;109638;1243;58290;-79
2023/09/18 04:54:32;;;;;;;21.70;10.20;;;;;;;12.82;100.00;101676.23;109654;1241;60290;-78
2023/09/18 04:57:01;;;;;;;19.60;9.30;;;;;;;12.96;100.00;101677.21;109574;1241;74878;-79
2023/09/18 04:59:31;;;;;;;24.00;10.40;;;;;;;13.11;100.00;101676.89;109651;1240;61817;-78
2023/09/18 05:02:00;;;;;;;13.60;9.70;;;;;;;13.45;100.00;101677.23;109615;1240;69199;-79
2023/09/18 05:04:29;;;;;;;14.40;9.30;;;;;;;13.84;100.00;101676.06;109667;1240;73975;-79
2023/09/18 05:06:58;;;;;;;17.60;9.30;;;;;;;14.12;100.00;101676.33;109682;1241;63418;-79
2023/09/18 05:09:26;;;;;;;22.20;9.60;;;;;;;14.47;100.00;101678.20;109703;1241;62509;-77
2023/09/18 05:11:55;;;;;;;18.40;8.90;;;;;;;14.79;100.00;101679.82;109721;1240;74614;-78
2023/09/18 05:14:24;;;;;;;17.60;9.50;;;;;;;14.91;100.00;101681.08;109680;1241;62057;-79
2023/09/18 05:16:53;;;;;;;19.50;8.60;;;;;;;15.03;100.00;101682.77;109728;1240;59205;-81
2023/09/18 05:19:22;;;;;;;16.60;8.90;;;;;;;15.13;100.00;101680.59;109650;1240;63075;-80
2023/09/18 05:21:52;;;;;;;16.20;8.90;;;;;;;15.29;100.00;101674.98;109711;1241;57920;-79
2023/09/18 05:24:26;;;;;;;13.30;8.80;;;;;;;15.40;100.00;101675.16;109711;1241;60407;-79
2023/09/18 05:26:55;;;;;;;19.90;9.10;;;;;;;15.65;100.00;101675.34;109815;1241;63532;-77
2023/09/18 05:29:24;;;;;;;17.00;8.90;;;;;;;15.79;100.00;101675.48;109729;1241;60901;-78
2023/09/18 05:31:53;;;;;;;14.00;9.50;;;;;;;15.75;100.00;101674.05;109638;1241;59946;-78
2023/09/18 05:34:22;;;;;;;17.70;10.30;;;;;;;15.82;100.00;101667.85;109610;1241;73034;-78
2023/09/18 05:36:51;;;;;;;18.90;9.00;;;;;;;15.90;100.00;101666.58;109516;1242;63521;-77
2023/09/18 05:39:20;;;;;;;13.70;8.20;;;;;;;15.99;100.00;101666.90;109610;1241;58303;-74
2023/09/18 05:41:49;;;;;;;15.10;8.50;;;;;;;16.12;100.00;101666.50;109644;1240;64476;-73
2023/09/18 05:44:18;;;;;;;19.10;9.20;;;;;;;16.20;100.00;101665.36;109780;1240;60745;-73
2023/09/18 05:46:47;;;;;;;21.90;9.10;;;;;;;16.28;100.00;101665.09;109787;1240;59901;-77
2023/09/18 05:49:16;;;;;;;18.00;8.20;;;;;;;16.38;100.00;101668.31;109796;1240;63083;-78
2023/09/18 05:51:47;;;;;;;17.30;8.50;;;;;;;16.51;100.00;101664.93;109757;1241;58360;-78
2023/09/18 05:54:16;;;;;;;15.40;9.00;;;;;;;16.66;100.00;101664.27;109676;1241;60235;-79
2023/09/18 05:56:44;;;;;;;16.60;8.50;;;;;;;16.77;100.00;101665.85;109742;1240;74043;-78
2023/09/18 05:59:15;;;;;;;13.60;8.60;;;;;;;16.83;100.00;101668.14;109770;1240;71807;-79
2023/09/18 06:01:44;;;;;;;12.30;8.70;;;;;;;16.91;100.00;101668.36;109756;1240;70975;-80
2023/09/18 06:04:13;;;;;;;15.60;8.70;;;;;;;17.05;100.00;101665.20;109714;1241;64605;-80
2023/09/18 06:06:42;;;;;;;14.50;8.00;;;;;;;17.20;100.00;101666.18;109648;1241;57783;-78
2023/09/18 06:09:12;;;;;;;18.80;8.60;;;;;;;17.31;100.00;101668.29;109646;1241;60405;-80
2023/09/18 06:11:41;;;;;;;18.90;9.70;;;;;;;17.40;100.00;101669.42;109659;1241;63815;-78
2023/09/18 06:14:10;;;;;;;12.80;8.70;;;;;;;17.49;100.00;101670.99;109731;1240;60809;-79
2023/09/18 06:16:39;;;;;;;17.70;8.20;;;;;;;17.67;100.00;101675.38;109717;1241;60896;-80
2023/09/18 06:19:08;;;;;;;15.10;8.90;;;;;;;17.82;100.00;101672.65;109514;1241;73352;-80
2023/09/18 06:21:37;;;;;;;15.20;7.90;;;;;;;17.97;100.00;101672.08;109699;1241;57783;-77
2023/09/18 06:24:06;;;;;;;17.60;8.00;;;;;;;18.10;100.00;101671.46;109688;1241;58280;-79
2023/09/18 06:26:35;;;;;;;15.00;8.50;;;;;;;18.20;100.00;101673.55;109704;1241;62909;-79
2023/09/18 06:29:04;;;;;;;16.40;7.60;;;;;;;18.30;100.00;101675.84;109699;1241;61576;-78
2023/09/18 06:31:33;;;;;;;15.80;7.20;;;;;;;18.39;100.00;101676.01;109604;1241;59930;-79
2023/09/18 06:34:02;;;;;;;11.00;7.40;;;;;;;18.52;100.00;101678.27;109585;1240;62509;-78
2023/09/18 06:36:31;;;;;;;10.30;7.10;;;;;;;18.61;100.00;101680.27;109589;1244;58179;-78
2023/09/18 06:39:00;;;;;;;11.80;7.20;;;;;;;18.70;100.00;101679.92;109661;1241;61094;-78
2023/09/18 06:41:29;;;;;;;15.60;7.10;;;;;;;18.80;100.00;101680.25;109664;1241;75555;-78
2023/09/18 06:43:58;;;;;;;10.80;7.30;;;;;;;18.94;100.00;101680.76;109662;1241;71919;-78
2023/09/18 06:46:27;;;;;;;14.70;7.50;;;;;;;19.07;100.00;101680.92;109665;1241;70935;-78
2023/09/18 06:48:56;;;;;;;11.10;7.40;;;;;;;19.17;100.00;101680.40;109647;1242;73462;-79
2023/09/18 06:51:27;;;;;;;9.10;6.80;;;;;;;19.31;100.00;101684.32;109549;1241;60620;-79
2023/09/18 06:54:10;;;;;;;9.80;5.80;;;;;;;19.43;100.00;101680.02;109478;1241;57729;-79
2023/09/18 06:56:41;;;;;;;11.70;5.80;;;;;;;19.46;100.00;101685.73;109573;1241;63918;-79
2023/09/18 06:59:11;;;;;;;9.90;5.60;;;;;;;19.58;100.00;101689.40;109479;1240;60737;-79
2023/09/18 07:01:42;;;;;;;9.10;5.60;;;;;;;19.79;100.00;101691.84;109543;1241;69603;-77
2023/09/18 07:04:11;;;;;;;12.90;5.20;;;;;;;19.90;100.00;101690.94;109531;1241;63796;-80
2023/09/18 07:06:40;;;;;;;8.50;5.10;;;;;;;20.00;100.00;101687.20;109438;1243;58269;-76
2023/09/18 07:09:11;;;;;;;11.10;6.80;;;;;;;20.16;100.00;101684.52;109670;1241;57671;-78
2023/09/18 07:11:41;;;;;;;11.70;5.50;;;;;;;20.31;100.00;101684.13;109576;1241;63795;-77
2023/09/18 07:14:10;;;;;;;12.00;5.00;;;;;;;20.54;100.00;101684.85;109561;1241;61816;-79
2023/09/18 07:16:40;;;;;;;9.20;5.10;;;;;;;20.80;99.39;101685.84;109522;1240;60007;-77
2023/09/18 07:19:11;;;;;;;11.70;4.90;;;;;;;20.98;96.21;101687.73;109407;1241;73039;-79
2023/09/18 07:21:41;;;;;;;11.60;4.80;;;;;;;20.92;93.47;101687.20;109504;1243;57769;-79
2023/09/18 07:24:16;;;;;;;8.40;4.90;;;;;;;21.10;94.27;101685.64;109648;1241;58285;-79
2023/09/18 07:26:48;;;;;;;7.20;4.30;;;;;;;21.25;93.60;101689.42;109687;1241;64903;-78
2023/09/18 07:29:17;;;;;;;11.40;4.60;;;;;;;21.22;89.71;101688.33;109667;1241;71821;-76
2023/09/18 07:31:46;;;;;;;11.40;5.10;;;;;;;21.19;89.72;101685.98;109701;1241;60123;-75
2023/09/18 07:34:17;;;;;;;14.20;5.60;;;;;;;21.37;89.53;101684.45;109454;1241;73867;-75
2023/09/18 07:36:45;;;;;;;7.20;4.60;;;;;;;21.63;88.22;101680.94;109497;1241;61702;-75
2023/09/18 07:39:14;;;;;;;9.00;4.90;;;;;;;21.70;86.59;101682.46;109522;1241;61387;-77
2023/09/18 07:41:43;;;;;;;10.70;4.70;;;;;;;21.61;80.25;101681.98;109512;1241;64101;-75
2023/09/18 07:44:12;;;;;;;5.80;4.00;;;;;;;21.81;80.72;101682.56;109513;1240;61733;-76
2023/09/18 07:46:41;;;;;;;6.00;4.00;;;;;;;21.91;78.67;101675.27;109476;1241;59810;-76
2023/09/18 07:49:10;;;;;;;7.50;4.20;;;;;;;22.02;78.71;101671.48;109507;1240;62348;-76
2023/09/18 07:51:39;;;;;;;5.90;4.60;;;;;;;22.17;78.86;101674.48;109443;1241;61107;-76
2023/09/18 07:54:08;;;;;;;6.00;4.40;;;;;;;22.31;76.97;101672.71;109531;1240;57804;-76
2023/09/18 07:56:37;;;;;;;7.90;3.70;;;;;;;22.40;75.59;101670.42;109482;1240;73640;-76
2023/09/18 07:59:07;;;;;;;6.50;3.70;;;;;;;22.46;75.64;101672.27;109482;1240;73327;-77
2023/09/18 08:01:36;;;;;;;6.60;4.30;;;;;;;22.47;75.99;101672.19;109470;1241;60309;-76
2023/09/18 08:04:05;;;;;;;8.40;4.60;;;;;;;22.47;76.66;101671.29;109468;1240;62305;-76
2023/09/18 08:06:34;;;;;;;5.40;4.00;;;;;;;22.55;75.20;101667.20;109446;1241;58408;-76
2023/09/18 08:09:04;;;;;;;9.40;4.00;;;;;;;22.63;75.39;101666.15;109493;1241;57768;-76
2023/09/18 08:11:33;;;;;;;9.20;4.40;;;;;;;22.65;75.12;101667.74;109488;1241;62808;-76
2023/09/18 08:14:02;;;;;;;7.80;4.50;;;;;;;22.79;74.25;101667.27;109532;1241;69488;-77
2023/09/18 08:16:32;;;;;;;7.50;4.40;;;;;;;22.89;73.27;101661.32;109548;1241;60377;-77
2023/09/18 08:19:04;;;;;;;8.10;4.50;;;;;;;23.07;72.32;101657.84;109498;1241;73249;-77
2023/09/18 08:21:33;;;;;;;9.20;4.60;;;;;;;23.21;71.14;101656.11;109374;1244;61467;-77
2023/09/18 08:24:02;;;;;;;7.40;4.80;;;;;;;23.26;69.43;101656.62;109487;1241;60915;-77
2023/09/18 08:26:31;;;;;;;12.20;4.40;;;;;;;23.29;68.86;101651.52;109551;1240;73091;-76
2023/09/18 08:29:00;;;;;;;8.90;4.00;;;;;;;23.31;67.62;101650.14;109540;1241;72832;-76
2023/09/18 08:31:31;;;;;;;7.00;4.00;;;;;;;23.47;68.22;101649.95;109419;1241;70319;-76
2023/09/18 08:34:00;;;;;;;6.70;4.60;;;;;;;23.60;68.62;101645.98;109442;1244;63558;-77
2023/09/18 08:36:30;;;;;;;12.90;4.70;;;;;;;23.78;66.66;101653.81;109519;1241;58213;-75
2023/09/18 08:38:59;;;;;;;7.50;4.00;;;;;;;23.87;63.36;101653.47;109599;1241;58361;-75
2023/09/18 08:41:32;;;;;;;8.60;5.00;;;;;;;23.98;59.64;101646.46;109690;1241;62857;-76
2023/09/18 08:44:03;;;;;;;7.10;4.30;;;;;;;23.78;58.39;101645.07;109465;1241;71359;-75
2023/09/18 08:46:34;;;;;;;8.20;4.90;;;;;;;23.70;58.00;101643.28;109692;1240;70793;-76
2023/09/18 08:49:04;;;;;;;9.40;4.60;;;;;;;23.87;58.93;101638.55;109629;1244;63223;-75
2023/09/18 08:51:35;;;;;;;6.70;4.60;;;;;;;23.97;58.65;101640.56;109613;1244;57783;-76
2023/09/18 08:54:05;;;;;;;6.60;4.90;;;;;;;24.16;57.01;101639.84;109628;1242;58371;-76
2023/09/18 08:56:34;;;;;;;6.90;4.50;;;;;;;24.10;57.30;101646.73;109699;1240;74369;-76
2023/09/18 08:59:03;;;;;;;12.00;4.90;;;;;;;24.22;56.46;101642.84;109669;1241;73703;-76
2023/09/18 09:01:32;;;;;;;8.70;4.60;;;;;;;24.24;56.96;101642.91;109619;1241;70161;-76
2023/09/18 09:04:01;;;;;;;9.10;4.80;;;;;;;24.11;55.93;101637.30;109558;1240;74922;-76
2023/09/18 09:06:30;;;;;;;7.80;4.80;;;;;;;24.18;55.16;101636.19;109591;1244;58753;-76
2023/09/18 09:09:00;;;;;;;16.20;5.10;;;;;;;24.29;54.55;101634.86;109651;1241;61876;-77
2023/09/18 09:11:29;;;;;;;9.90;4.90;;;;;;;24.09;54.16;101630.77;109491;1240;74550;-77
2023/09/18 09:14:28;;;;;;;8.60;5.40;;;;;;;24.14;54.05;101630.01;109698;1241;61928;-76
2023/09/18 09:16:57;;;;;;;7.50;4.40;;;;;;;24.49;53.47;101627.41;109641;1242;60065;-77
2023/09/18 09:19:42;;;;;;;8.60;4.80;;;;;;;24.74;53.33;101624.30;109491;1241;63231;-76
2023/09/18 09:22:20;;;;;;;8.70;4.60;;;;;;;24.91;51.54;101619.80;109572;1241;58314;-78
2023/09/18 09:24:49;;;;;;;8.00;4.70;;;;;;;24.85;52.28;101620.52;109620;1244;57745;-75
2023/09/18 09:27:18;;;;;;;7.10;4.80;;;;;;;25.01;51.29;101622.15;109660;1244;63746;-76
2023/09/18 09:30:04;;;;;;;10.50;4.70;;;;;;;25.01;51.48;101626.05;109647;1244;61558;-75
2023/09/18 09:32:33;;;;;;;8.20;5.20;;;;;;;24.98;50.48;101622.48;109902;1242;60061;-76
2023/09/18 09:35:06;;;;;;;6.80;4.30;;;;;;;24.82;51.11;101625.23;109522;1240;73638;-76
2023/09/18 09:37:35;;;;;;;8.20;4.80;;;;;;;24.74;50.76;101617.23;109502;1241;57856;-76
2023/09/18 09:40:08;;;;;;;7.80;4.40;;;;;;;24.74;50.82;101616.21;109548;1241;58254;-77
2023/09/18 09:42:41;;;;;;;7.10;4.50;;;;;;;24.88;51.14;101609.93;109438;1243;64114;-76
2023/09/18 09:45:18;;;;;;;7.20;4.30;;;;;;;25.05;49.57;101608.15;109267;1241;71637;-76
2023/09/18 09:47:47;;;;;;;6.80;4.80;;;;;;;24.74;49.62;101597.59;109266;1247;60278;-77
2023/09/18 09:50:18;;;;;;;13.20;5.50;;;;;;;24.97;50.53;101603.77;109489;1241;63044;-77
2023/09/18 09:52:49;;;;;;;8.50;4.80;;;;;;;25.19;49.02;101598.99;109417;1242;58512;-78
2023/09/18 09:55:24;;;;;;;7.50;5.10;;;;;;;25.29;47.65;101600.77;109536;1242;57774;-76
2023/09/18 09:57:59;;;;;;;6.50;4.80;;;;;;;25.06;45.52;101600.86;109520;1241;73580;-77
2023/09/18 10:00:53;;;;;;;7.10;4.90;;;;;;;25.10;46.31;101602.92;109542;1241;62184;-76
2023/09/18 10:03:22;;;;;;;9.30;4.90;;;;;;;25.31;45.71;101597.67;109469;1241;69808;-76
2023/09/18 10:05:53;;;;;;;13.20;5.30;;;;;;;25.32;45.30;101602.05;109535;1242;63627;-76
2023/09/18 10:08:28;;;;;;;10.60;4.80;;;;;;;25.52;45.96;101598.64;109414;1243;61856;-76
2023/09/18 10:11:08;;;;;;;9.40;4.70;;;;;;;25.57;45.16;101595.85;109465;1240;61255;-78
2023/09/18 10:13:46;;;;;;;13.10;5.30;;;;;;;25.71;45.02;101590.50;109259;1244;74061;-77
2023/09/18 10:16:19;;;;;;;9.50;4.60;;;;;;;25.87;44.24;101587.81;109439;1244;62606;-76
2023/09/18 10:19:03;;;;;;;10.70;4.70;;;;;;;25.75;44.22;101591.87;109497;1241;60162;-77
2023/09/18 10:21:48;;;;;;;8.50;4.60;;;;;;;25.65;44.72;101589.92;109530;1242;62473;-77
2023/09/18 10:24:24;;;;;;;9.60;5.10;;;;;;;25.89;44.73;101580.21;109417;1241;61951;-76
2023/09/18 10:27:04;;;;;;;6.80;4.80;;;;;;;25.92;43.19;101578.44;109513;1242;57802;-77
2023/09/18 10:29:34;;;;;;;8.20;5.00;;;;;;;26.09;42.79;101575.35;109497;1241;64638;-76
2023/09/18 10:32:04;;;;;;;10.50;5.30;;;;;;;26.26;41.93;101573.56;109284;1245;61442;-76
2023/09/18 10:34:35;;;;;;;6.80;4.70;;;;;;;26.08;41.45;101573.72;109443;1245;60031;-76
2023/09/18 10:37:07;;;;;;;6.90;4.60;;;;;;;25.92;42.02;101570.89;109273;1243;336371;-75
2023/09/18 10:39:41;;;;;;;8.40;4.80;;;;;;;26.25;41.84;101568.56;109460;1244;58358;-76
2023/09/18 10:42:13;;;;;;;9.40;4.70;;;;;;;26.22;41.16;101562.40;109588;1243;57779;-76
2023/09/18 10:44:43;;;;;;;6.00;4.30;;;;;;;26.15;41.81;101556.27;109586;1244;63921;-76
2023/09/18 10:47:14;;;;;;;6.90;4.50;;;;;;;26.72;41.71;101554.70;109497;1241;62823;-76
2023/09/18 10:49:43;;;;;;;9.20;4.30;;;;;;;26.62;40.75;101554.27;109465;1241;60476;-77
2023/09/18 10:52:13;;;;;;;8.40;5.20;;;;;;;26.47;40.73;101554.02;109445;1243;63292;-76
2023/09/18 10:54:44;;;;;;;10.60;5.00;;;;;;;26.80;40.91;101556.57;109291;1243;60234;-76
2023/09/18 10:57:13;;;;;;;8.00;4.70;;;;;;;27.13;40.34;101552.64;109432;1241;61047;-76
2023/09/18 10:59:46;;;;;;;8.20;4.50;;;;;;;26.91;40.62;101548.35;109334;1243;74770;-76
2023/09/18 11:02:17;;;;;;;7.90;4.50;;;;;;;27.08;41.34;101545.39;109242;1243;61303;-76
2023/09/18 11:04:46;;;;;;;8.30;5.00;;;;;;;27.25;41.46;101543.66;109404;1241;70561;-76
2023/09/18 11:07:24;;;;;;;9.20;4.70;;;;;;;27.67;40.84;101540.62;109442;1241;65485;-76
2023/09/18 11:09:53;;;;;;;9.90;4.60;;;;;;;27.10;41.55;101533.96;109484;1242;59811;-75
2023/09/18 11:12:43;;;;;;;8.60;5.00;;;;;;;27.54;40.70;101538.79;109385;1243;60429;-75
2023/09/18 11:15:31;;;;;;;10.20;5.00;;;;;;;28.30;39.81;101532.01;109402;1241;74176;-75
2023/09/18 11:18:02;;;;;;;8.40;4.60;;;;;;;28.14;40.04;101528.16;109383;1241;72653;-76
2023/09/18 11:20:39;;;;;;;9.40;4.70;;;;;;;27.60;40.55;101524.70;109422;1241;68992;-76
2023/09/18 11:23:13;;;;;;;12.70;4.80;;;;;;;28.51;40.06;101521.41;109425;1241;73377;-77
2023/09/18 11:25:48;;;;;;;9.00;4.40;;;;;;;29.46;37.48;101514.77;109499;1241;60988;-76